Hlavní strana
METAR-TAF:

METAR-TAF

Letiště :

Letiště Istanbul

Istanbul, Turecko

zeměpisná šířka: 41-16-31N, zeměpisná délka: 028-45-07E, výška: 99 m

Aktuální stav počasí

Zpráva byla vytvořena před 36 minutami, v 13:20 UTC
Severovýchodní vítr 13 kt
Teplota 17°C
Vlhkost vzduchu 63%
Tlak 1019 hPa
Viditelnost 10 km a více
Skoro jasno ve výšce 4000 ft

METAR: LTFM 261320Z 05013KT 9999 FEW040 17/10 Q1019 NOSIG RMK RWY17L 06012KT 030V100 RWY34L 04011KT 010V080 RWY16R 05012KT 020V080

Čas: 16:56 (13:56 UTC)

Předpověď počasí

Zpráva byla vytvořena před 3 hodinami a 16 minutami, v 10:40 UTC
Předpověď platná od 26 v 12 UTC do 27 v 18 UTC
Severovýchodní vítr 12 kt
Viditelnost 10 km a více
Polojasno ve výšce 4000 ft
Oblačno až skoro zataženo ve výšce 10000 ft

TAF: LTFM 261040Z 2612/2718 05012KT 9999 SCT040 BKN100

Stav a předpovědi počasí z více než 4 000 letišť (zprávy METAR a TAF).

Červené a žluté tečky na mapě představují dostupné meteorologické stanice.

Když kurzor umístíte na tečku, zobrazí se název stanice.

Pak kliknutím zobrazíte stav a předpověď počasí.

Chcete-li změnit mapu, kliknutím na zelené tlačítko se znaménkem +mapu přiblížíte, kliknutím na zelené tlačítko se znaménkem – mapu oddálíte a kliknutím na zelené šipky přejdete na sousední mapy.


METAR-TAF: